Time;durP1;ratioP1;P1;durP2;ratioP2;P2;SDS_P1;SDS_P2;PMS_P1;PMS_P2;Temp;Humidity;BMP_temperature;BMP_pressure;BME280_temperature;BME280_humidity;BME280_pressure;Samples;Min_cycle;Max_cycle;Signal;HPM_P1;HPM_P2
2023/06/07 00:03:21;;;;;;;;;;;;;;;13.20;100.00;95735.03;10507550;28;1958;-73
2023/06/07 00:08:24;;;;;;;;;;;;;;;13.13;100.00;95737.28;10504037;28;2219;-73
2023/06/07 00:13:26;;;;;;;;;;;;;;;13.08;100.00;95731.97;10504169;28;1898;-72
2023/06/07 00:18:29;;;;;;;;;;;;;;;12.98;100.00;95728.31;10496353;28;1922;-72
2023/06/07 00:23:31;;;;;;;;;;;;;;;12.93;100.00;95724.88;10504726;28;2029;-73
2023/06/07 00:28:33;;;;;;;;;;;;;;;12.94;100.00;95723.78;10507437;28;1943;-72
2023/06/07 00:33:36;;;;;;;;;;;;;;;12.92;100.00;95720.56;10509188;28;1959;-72
2023/06/07 00:38:38;;;;;;;;;;;;;;;12.88;100.00;95714.16;10510151;28;2158;-73
2023/06/07 00:43:45;;;;;;;;;;;;;;;12.79;100.00;95711.28;10508387;28;4522;-72
2023/06/07 00:48:48;;;;;;;;;;;;;;;12.76;100.00;95706.47;10508655;28;1946;-72
2023/06/07 00:53:51;;;;;;;;;;;;;;;12.63;100.00;95701.78;10510948;28;2107;-73
2023/06/07 00:58:53;;;;;;;;;;;;;;;12.57;100.00;95711.00;10511067;28;1957;-73
2023/06/07 01:03:56;;;;;;;;;;;;;;;12.53;100.00;95705.38;10507026;28;2180;-73
2023/06/07 01:08:58;;;;;;;;;;;;;;;12.46;100.00;95699.53;10510531;28;2029;-72
2023/06/07 01:14:01;;;;;;;;;;;;;;;12.44;100.00;95704.41;10506028;28;2004;-71
2023/06/07 01:19:04;;;;;;;;;;;;;;;12.37;100.00;95699.38;10509934;28;2251;-73
2023/06/07 01:24:07;;;;;;;;;;;;;;;12.30;100.00;95693.53;10510646;28;1906;-72
2023/06/07 01:29:09;;;;;;;;;;;;;;;12.28;100.00;95693.00;10508278;28;2064;-73
2023/06/07 01:34:12;;;;;;;;;;;;;;;12.29;100.00;95694.59;10504506;28;1973;-73
2023/06/07 01:39:15;;;;;;;;;;;;;;;12.26;100.00;95694.38;10504945;28;1946;-73
2023/06/07 01:44:17;;;;;;;;;;;;;;;12.21;100.00;95697.91;10506286;28;4504;-73
2023/06/07 01:49:20;;;;;;;;;;;;;;;12.21;100.00;95699.81;10505963;28;2224;-73
2023/06/07 01:54:22;;;;;;;;;;;;;;;12.23;100.00;95692.25;10494491;28;2018;-73
2023/06/07 01:59:25;;;;;;;;;;;;;;;12.15;100.00;95688.28;10512594;28;2012;-73
2023/06/07 02:04:27;;;;;;;;;;;;;;;12.09;100.00;95686.75;10505255;28;2341;-72
2023/06/07 02:09:30;;;;;;;;;;;;;;;11.99;100.00;95686.84;10507072;28;2011;-73
2023/06/07 02:14:32;;;;;;;;;;;;;;;11.95;100.00;95685.78;10507085;28;2001;-72
2023/06/07 02:19:35;;;;;;;;;;;;;;;11.89;100.00;95691.22;10503914;28;1971;-73
2023/06/07 02:24:38;;;;;;;;;;;;;;;11.86;100.00;95688.28;10499360;28;2148;-73
2023/06/07 02:29:40;;;;;;;;;;;;;;;11.80;100.00;95700.97;10508248;28;1906;-72
2023/06/07 02:34:43;;;;;;;;;;;;;;;11.82;100.00;95698.81;10501820;28;1972;-73
2023/06/07 02:39:45;;;;;;;;;;;;;;;11.78;100.00;95697.75;10508810;28;1919;-73
2023/06/07 02:44:48;;;;;;;;;;;;;;;11.77;100.00;95704.25;10500240;28;4463;-73
2023/06/07 02:49:50;;;;;;;;;;;;;;;11.79;100.00;95704.75;10505794;28;1996;-73
2023/06/07 02:54:52;;;;;;;;;;;;;;;11.77;100.00;95706.94;10507496;28;2141;-72
2023/06/07 02:59:56;;;;;;;;;;;;;;;11.72;100.00;95709.66;10505637;28;2360;-72
2023/06/07 03:05:00;;;;;;;;;;;;;;;11.76;100.00;95705.31;10493228;28;1960;-72
2023/06/07 03:10:02;;;;;;;;;;;;;;;11.70;100.00;95706.44;10509699;28;2287;-72
2023/06/07 03:15:05;;;;;;;;;;;;;;;11.67;100.00;95711.59;10503051;28;1977;-71
2023/06/07 03:20:08;;;;;;;;;;;;;;;11.65;100.00;95719.97;10504631;28;2029;-73
2023/06/07 03:25:11;;;;;;;;;;;;;;;11.71;100.00;95724.22;10503339;28;1997;-72
2023/06/07 03:30:13;;;;;;;;;;;;;;;11.75;100.00;95730.63;10497378;28;1978;-72
2023/06/07 03:35:16;;;;;;;;;;;;;;;11.87;100.00;95733.78;10507942;28;1926;-73
2023/06/07 03:40:18;;;;;;;;;;;;;;;11.98;100.00;95729.13;10503451;28;2055;-72
2023/06/07 03:45:20;;;;;;;;;;;;;;;12.19;100.00;95729.75;10497911;28;4457;-73
2023/06/07 03:50:23;;;;;;;;;;;;;;;12.42;100.00;95739.75;10504266;28;1988;-72
2023/06/07 03:55:25;;;;;;;;;;;;;;;12.70;100.00;95734.59;10512362;28;2388;-71
2023/06/07 04:00:28;;;;;;;;;;;;;;;12.96;100.00;95730.47;10504918;28;1950;-72
2023/06/07 04:05:31;;;;;;;;;;;;;;;13.34;100.00;95733.25;10505230;28;2218;-72
2023/06/07 04:10:33;;;;;;;;;;;;;;;13.62;100.00;95725.31;10510057;28;2081;-72
2023/06/07 04:15:35;;;;;;;;;;;;;;;13.83;100.00;95729.28;10512211;28;1953;-72
2023/06/07 04:20:38;;;;;;;;;;;;;;;14.02;100.00;95721.94;10516700;28;1938;-73
2023/06/07 04:25:41;;;;;;;;;;;;;;;13.98;100.00;95731.72;10509500;28;1861;-72
2023/06/07 04:30:44;;;;;;;;;;;;;;;14.30;100.00;95722.78;10514435;28;1974;-72
2023/06/07 04:35:46;;;;;;;;;;;;;;;14.53;100.00;95721.03;10513078;28;2017;-72
2023/06/07 04:40:49;;;;;;;;;;;;;;;14.57;100.00;95716.66;10507832;28;2056;-73
2023/06/07 04:45:54;;;;;;;;;;;;;;;14.97;100.00;95714.22;10510559;28;4604;-72
2023/06/07 04:51:03;;;;;;;;;;;;;;;15.01;100.00;95720.59;10506691;28;2284;-72
2023/06/07 04:56:06;;;;;;;;;;;;;;;15.23;100.00;95722.59;10503999;28;2005;-72
2023/06/07 05:01:10;;;;;;;;;;;;;;;15.35;100.00;95722.06;10509634;28;1928;-71
2023/06/07 05:06:18;;;;;;;;;;;;;;;15.37;100.00;95717.16;10504024;28;1906;-74
2023/06/07 05:11:21;;;;;;;;;;;;;;;15.75;100.00;95722.28;10511004;28;2217;-73
2023/06/07 05:16:24;;;;;;;;;;;;;;;16.19;100.00;95722.25;10516171;28;1835;-72
2023/06/07 05:21:27;;;;;;;;;;;;;;;16.12;100.00;95727.31;10507083;28;2044;-72
2023/06/07 05:26:29;;;;;;;;;;;;;;;16.24;100.00;95723.25;10511679;28;1867;-72
2023/06/07 05:31:32;;;;;;;;;;;;;;;16.20;100.00;95734.69;10503493;28;2043;-71
2023/06/07 05:36:34;;;;;;;;;;;;;;;16.52;100.00;95724.66;10508872;28;1995;-72
2023/06/07 05:41:37;;;;;;;;;;;;;;;17.02;100.00;95735.25;10510591;28;1895;-72
2023/06/07 05:46:39;;;;;;;;;;;;;;;17.52;100.00;95729.44;10503878;28;4572;-74
2023/06/07 05:51:42;;;;;;;;;;;;;;;17.72;100.00;95723.38;10508834;28;1914;-72
2023/06/07 05:56:45;;;;;;;;;;;;;;;17.74;100.00;95732.00;10510953;28;1867;-71
2023/06/07 06:01:48;;;;;;;;;;;;;;;18.34;100.00;95723.00;10511444;28;1915;-71
2023/06/07 06:06:50;;;;;;;;;;;;;;;18.26;100.00;95726.53;10511810;28;1895;-70
2023/06/07 06:11:55;;;;;;;;;;;;;;;18.25;100.00;95730.34;10512888;28;1910;-71
2023/06/07 06:16:57;;;;;;;;;;;;;;;18.07;100.00;95731.53;10506740;28;1938;-71
2023/06/07 06:21:59;;;;;;;;;;;;;;;18.45;100.00;95726.19;10511970;28;1859;-73
2023/06/07 06:27:02;;;;;;;;;;;;;;;19.03;100.00;95721.97;10509339;28;2091;-72
2023/06/07 06:32:04;;;;;;;;;;;;;;;19.12;100.00;95725.44;10505412;28;1993;-72
2023/06/07 06:37:07;;;;;;;;;;;;;;;19.73;100.00;95724.25;10508685;28;1923;-72
2023/06/07 06:42:10;;;;;;;;;;;;;;;19.34;100.00;95737.16;10506251;28;2211;-71
2023/06/07 06:47:12;;;;;;;;;;;;;;;19.56;100.00;95727.88;10510088;28;4459;-71
2023/06/07 06:52:15;;;;;;;;;;;;;;;19.65;100.00;95734.09;10506271;28;1942;-73
2023/06/07 06:57:17;;;;;;;;;;;;;;;19.86;100.00;95726.72;10511038;28;1753;-72
2023/06/07 07:02:19;;;;;;;;;;;;;;;19.23;100.00;95728.56;10509482;28;1999;-73
2023/06/07 07:07:22;;;;;;;;;;;;;;;20.02;100.00;95723.34;10507265;28;1847;-72
2023/06/07 07:12:24;;;;;;;;;;;;;;;20.17;100.00;95717.28;10506556;28;1975;-72
2023/06/07 07:17:27;;;;;;;;;;;;;;;20.79;100.00;95733.47;10496736;28;1876;-72
2023/06/07 07:22:29;;;;;;;;;;;;;;;21.07;100.00;95734.78;10495410;28;1784;-71
2023/06/07 07:27:31;;;;;;;;;;;;;;;21.03;100.00;95729.19;10501523;28;1914;-73
2023/06/07 07:32:34;;;;;;;;;;;;;;;21.01;100.00;95729.53;10502301;28;1918;-73
2023/06/07 07:37:38;;;;;;;;;;;;;;;21.55;100.00;95740.22;10500521;28;1917;-72
2023/06/07 07:42:40;;;;;;;;;;;;;;;21.14;100.00;95740.47;10503506;28;2559;-73
2023/06/07 07:47:43;;;;;;;;;;;;;;;21.18;100.00;95733.97;10506492;28;4819;-73
2023/06/07 07:52:45;;;;;;;;;;;;;;;21.61;100.00;95734.50;10512497;28;1962;-71
2023/06/07 07:57:48;;;;;;;;;;;;;;;22.50;100.00;95724.16;10508884;28;2025;-71
2023/06/07 08:02:50;;;;;;;;;;;;;;;23.30;100.00;95714.81;10512681;28;1848;-72
2023/06/07 08:07:53;;;;;;;;;;;;;;;23.43;100.00;95718.25;10505908;28;1935;-72
2023/06/07 08:12:56;;;;;;;;;;;;;;;24.05;100.00;95716.50;10515112;28;1917;-72
2023/06/07 08:17:58;;;;;;;;;;;;;;;24.21;98.55;95706.19;10511280;28;1540;-73
2023/06/07 08:23:00;;;;;;;;;;;;;;;24.09;98.68;95714.59;10516806;28;1459;-71
2023/06/07 08:28:04;;;;;;;;;;;;;;;23.71;100.00;95718.09;10511002;28;1878;-73
2023/06/07 08:33:07;;;;;;;;;;;;;;;23.52;100.00;95712.56;10506214;28;1911;-74
2023/06/07 08:38:09;;;;;;;;;;;;;;;23.23;99.55;95717.41;10509198;28;2877;-74
2023/06/07 08:43:12;;;;;;;;;;;;;;;22.59;100.00;95710.31;10510353;28;4451;-73
2023/06/07 08:48:14;;;;;;;;;;;;;;;22.77;100.00;95714.28;10505479;28;1903;-73
2023/06/07 08:53:17;;;;;;;;;;;;;;;22.19;97.77;95718.63;10504607;28;1891;-73
2023/06/07 08:58:20;;;;;;;;;;;;;;;22.23;98.17;95716.78;10508330;28;1800;-74
2023/06/07 09:03:22;;;;;;;;;;;;;;;22.92;90.74;95718.22;10503841;28;1853;-74
2023/06/07 09:08:25;;;;;;;;;;;;;;;23.91;77.94;95710.69;10507053;28;2008;-73
2023/06/07 09:13:27;;;;;;;;;;;;;;;24.08;71.48;95706.72;10508410;28;1969;-74
2023/06/07 09:18:29;;;;;;;;;;;;;;;24.10;64.08;95702.44;10505559;28;1895;-73
2023/06/07 09:23:32;;;;;;;;;;;;;;;24.08;77.66;95710.25;10503861;28;2025;-71
2023/06/07 09:28:34;;;;;;;;;;;;;;;23.17;86.84;95710.59;10505960;28;1903;-73
2023/06/07 09:33:37;;;;;;;;;;;;;;;22.63;86.91;95717.47;10505056;28;2344;-72
2023/06/07 09:38:41;;;;;;;;;;;;;;;22.34;90.59;95710.47;10499497;28;1915;-73
2023/06/07 09:43:46;;;;;;;;;;;;;;;22.10;92.69;95711.38;10502033;28;4395;-73
2023/06/07 09:48:49;;;;;;;;;;;;;;;21.11;100.00;95717.34;10505455;28;1925;-73
2023/06/07 09:53:52;;;;;;;;;;;;;;;21.04;100.00;95706.97;10488931;28;2152;-74
2023/06/07 09:58:56;;;;;;;;;;;;;;;21.35;100.00;95707.56;10504355;28;1719;-74
2023/06/07 10:03:58;;;;;;;;;;;;;;;22.47;92.48;95700.22;10501034;28;1896;-74
2023/06/07 10:09:01;;;;;;;;;;;;;;;23.51;76.88;95695.31;10500827;28;1823;-74
2023/06/07 10:14:04;;;;;;;;;;;;;;;24.22;77.96;95691.31;10504029;28;1911;-72
2023/06/07 10:19:06;;;;;;;;;;;;;;;24.69;67.16;95692.19;10504781;28;2158;-72
2023/06/07 10:24:10;;;;;;;;;;;;;;;23.95;82.37;95682.16;10498091;28;2139;-72
2023/06/07 10:29:12;;;;;;;;;;;;;;;23.86;82.97;95678.84;10500681;28;1856;-73
2023/06/07 10:34:15;;;;;;;;;;;;;;;23.67;77.26;95695.31;10508130;28;2029;-72
2023/06/07 10:39:18;;;;;;;;;;;;;;;23.28;76.24;95681.47;10510790;28;1944;-72
2023/06/07 10:44:21;;;;;;;;;;;;;;;23.87;74.24;95679.63;10506802;28;4402;-73
2023/06/07 10:49:23;;;;;;;;;;;;;;;24.85;65.85;95683.81;10502239;28;1870;-72
2023/06/07 10:54:26;;;;;;;;;;;;;;;25.47;57.59;95671.44;10505011;28;1957;-72
2023/06/07 10:59:28;;;;;;;;;;;;;;;26.70;51.52;95666.22;10510234;28;2036;-72
2023/06/07 11:04:33;;;;;;;;;;;;;;;26.81;49.87;95665.16;10491191;28;2143;-73
2023/06/07 11:09:36;;;;;;;;;;;;;;;25.95;53.34;95670.91;10490261;28;1859;-73
2023/06/07 11:14:38;;;;;;;;;;;;;;;25.00;55.77;95664.44;10500787;28;1959;-72
2023/06/07 11:19:41;;;;;;;;;;;;;;;23.70;59.50;95672.63;10514877;28;1847;-72
2023/06/07 11:24:43;;;;;;;;;;;;;;;24.18;59.57;95664.94;10504723;28;2354;-72
2023/06/07 11:29:48;;;;;;;;;;;;;;;24.86;54.91;95669.69;10497922;28;1884;-73
2023/06/07 11:34:50;;;;;;;;;;;;;;;24.71;56.44;95665.13;10500324;28;1972;-72
2023/06/07 11:39:53;;;;;;;;;;;;;;;25.07;50.25;95661.03;10499620;28;1856;-72
2023/06/07 11:44:56;;;;;;;;;;;;;;;24.90;50.04;95656.03;10507532;28;4490;-73
2023/06/07 11:49:58;;;;;;;;;;;;;;;24.85;48.67;95656.31;10495850;28;1971;-73
2023/06/07 11:55:01;;;;;;;;;;;;;;;24.23;46.83;95643.44;10496320;28;1942;-73
2023/06/07 12:00:06;;;;;;;;;;;;;;;24.91;49.22;95644.66;10498413;28;1927;-73
2023/06/07 12:05:10;;;;;;;;;;;;;;;24.62;51.26;95626.91;10486047;28;1894;-73
2023/06/07 12:10:12;;;;;;;;;;;;;;;24.06;54.99;95621.97;10501442;28;1903;-74
2023/06/07 12:15:15;;;;;;;;;;;;;;;23.62;53.56;95616.81;10500879;28;1983;-73
2023/06/07 12:20:18;;;;;;;;;;;;;;;23.90;53.24;95605.56;10503748;28;2294;-73
2023/06/07 12:25:20;;;;;;;;;;;;;;;23.02;54.45;95605.28;10500468;28;2002;-72
2023/06/07 12:30:23;;;;;;;;;;;;;;;22.95;54.91;95598.84;10502735;28;1971;-73
2023/06/07 12:35:25;;;;;;;;;;;;;;;23.81;50.73;95596.00;10510931;28;2004;-72
2023/06/07 12:40:27;;;;;;;;;;;;;;;24.85;48.01;95595.84;10508001;28;1958;-72
2023/06/07 12:45:30;;;;;;;;;;;;;;;25.80;45.34;95581.84;10509390;28;1959;-72
2023/06/07 12:50:33;;;;;;;;;;;;;;;25.95;40.36;95580.03;10512322;28;1918;-73
2023/06/07 12:55:35;;;;;;;;;;;;;;;26.23;40.94;95572.06;10503387;28;1973;-72
2023/06/07 13:00:39;;;;;;;;;;;;;;;26.59;38.29;95569.63;10508674;28;1926;-72
2023/06/07 13:05:42;;;;;;;;;;;;;;;25.99;39.31;95567.88;10502081;28;2020;-72
2023/06/07 13:10:44;;;;;;;;;;;;;;;25.48;38.85;95568.47;10511395;28;1937;-73
2023/06/07 13:15:47;;;;;;;;;;;;;;;25.47;39.64;95561.38;10504927;28;2342;-74
2023/06/07 13:20:50;;;;;;;;;;;;;;;24.62;41.28;95565.63;10509380;28;1879;-73
2023/06/07 13:25:52;;;;;;;;;;;;;;;24.87;41.55;95557.78;10510098;28;1864;-74
2023/06/07 13:30:55;;;;;;;;;;;;;;;25.39;41.25;95543.19;10500096;28;1911;-74
2023/06/07 13:35:58;;;;;;;;;;;;;;;25.83;38.41;95540.59;10512216;28;1958;-76
2023/06/07 13:41:00;;;;;;;;;;;;;;;26.44;40.37;95534.88;10507474;28;1903;-78
2023/06/07 13:46:03;;;;;;;;;;;;;;;26.29;37.71;95540.22;10503450;28;4530;-75
2023/06/07 13:51:08;;;;;;;;;;;;;;;25.25;38.90;95532.78;10501886;28;1860;-75
2023/06/07 13:56:10;;;;;;;;;;;;;;;25.24;37.98;95525.72;10508932;28;2036;-78
2023/06/07 14:01:13;;;;;;;;;;;;;;;25.65;37.71;95512.03;10509312;28;1926;-77
2023/06/07 14:06:16;;;;;;;;;;;;;;;25.69;36.43;95515.59;10511327;28;1855;-77
2023/06/07 14:11:21;;;;;;;;;;;;;;;26.44;34.98;95512.81;10501431;28;1990;-77
2023/06/07 14:16:23;;;;;;;;;;;;;;;25.84;34.92;95511.09;10505224;28;2093;-77
2023/06/07 14:21:29;;;;;;;;;;;;;;;25.06;36.12;95508.97;10510004;28;1758;-75
2023/06/07 14:26:32;;;;;;;;;;;;;;;25.04;36.07;95508.56;10506862;28;1883;-75
2023/06/07 14:31:34;;;;;;;;;;;;;;;25.09;36.13;95504.69;10512994;28;2040;-74
2023/06/07 14:36:37;;;;;;;;;;;;;;;25.15;36.52;95508.72;10492960;28;2020;-74
2023/06/07 14:41:43;;;;;;;;;;;;;;;25.54;35.65;95497.38;10500865;28;2127;-76
2023/06/07 14:46:46;;;;;;;;;;;;;;;25.29;34.52;95495.13;10493398;28;4421;-75
2023/06/07 14:51:48;;;;;;;;;;;;;;;25.36;34.73;95496.38;10500369;28;1906;-74
2023/06/07 14:56:51;;;;;;;;;;;;;;;24.70;35.11;95502.19;10499043;28;1894;-74
2023/06/07 15:01:54;;;;;;;;;;;;;;;25.19;34.74;95490.28;10500719;28;1975;-75
2023/06/07 15:06:56;;;;;;;;;;;;;;;25.81;33.72;95490.59;10502910;28;1847;-75
2023/06/07 15:11:59;;;;;;;;;;;;;;;26.24;32.29;95488.22;10500636;28;2355;-76
2023/06/07 15:17:03;;;;;;;;;;;;;;;26.14;32.64;95483.41;10495785;28;1930;-75
2023/06/07 15:22:06;;;;;;;;;;;;;;;25.94;31.70;95480.09;10504307;28;1925;-75
2023/06/07 15:27:09;;;;;;;;;;;;;;;25.48;32.45;95474.91;10494078;28;1886;-74
2023/06/07 15:32:11;;;;;;;;;;;;;;;25.66;32.27;95469.59;10496459;28;1876;-74
2023/06/07 15:37:14;;;;;;;;;;;;;;;25.80;33.11;95472.50;10491037;28;1949;-74
2023/06/07 15:42:16;;;;;;;;;;;;;;;25.70;35.32;95464.88;10500388;28;1922;-75
2023/06/07 15:47:19;;;;;;;;;;;;;;;25.75;34.81;95466.53;10494612;28;4613;-76
2023/06/07 15:52:21;;;;;;;;;;;;;;;26.03;35.81;95461.31;10495053;28;1891;-74
2023/06/07 15:57:23;;;;;;;;;;;;;;;25.01;38.44;95478.25;10490942;28;1969;-76
2023/06/07 16:02:26;;;;;;;;;;;;;;;24.55;39.24;95470.16;10500836;28;1853;-73
2023/06/07 16:07:28;;;;;;;;;;;;;;;24.38;40.22;95467.94;10502630;28;2360;-73
2023/06/07 16:12:33;;;;;;;;;;;;;;;24.50;40.51;95456.75;10506872;28;1844;-73
2023/06/07 16:17:35;;;;;;;;;;;;;;;24.22;39.31;95460.59;10509347;28;1890;-74
2023/06/07 16:22:38;;;;;;;;;;;;;;;24.36;39.45;95464.75;10506494;28;2128;-73
2023/06/07 16:27:41;;;;;;;;;;;;;;;24.11;41.42;95469.84;10506919;28;1836;-74
2023/06/07 16:32:43;;;;;;;;;;;;;;;24.02;42.69;95466.56;10506897;28;1851;-73
2023/06/07 16:37:46;;;;;;;;;;;;;;;23.66;44.11;95463.97;10505894;28;1979;-73
2023/06/07 16:42:49;;;;;;;;;;;;;;;23.64;44.17;95462.78;10502751;28;4484;-74
2023/06/07 16:47:52;;;;;;;;;;;;;;;23.58;45.31;95458.72;10503464;28;1899;-73
2023/06/07 16:52:55;;;;;;;;;;;;;;;23.44;45.45;95448.28;10505664;28;2025;-72
2023/06/07 16:57:57;;;;;;;;;;;;;;;23.43;44.33;95442.00;10507056;28;1980;-73
2023/06/07 17:03:00;;;;;;;;;;;;;;;23.32;44.96;95446.50;10502925;28;2398;-72
2023/06/07 17:08:03;;;;;;;;;;;;;;;23.10;44.95;95447.25;10500855;28;1910;-75
2023/06/07 17:13:05;;;;;;;;;;;;;;;23.03;45.74;95441.59;10506653;28;1844;-72
2023/06/07 17:18:08;;;;;;;;;;;;;;;22.79;46.06;95446.19;10509543;28;1975;-73
2023/06/07 17:23:10;;;;;;;;;;;;;;;22.81;47.40;95443.09;10510381;28;1886;-74
2023/06/07 17:28:13;;;;;;;;;;;;;;;22.61;47.67;95440.34;10510944;28;1898;-72
2023/06/07 17:33:15;;;;;;;;;;;;;;;22.62;48.09;95452.88;10474964;28;2202;-73
2023/06/07 17:38:18;;;;;;;;;;;;;;;22.67;48.11;95447.13;10508592;28;1919;-73
2023/06/07 17:43:21;;;;;;;;;;;;;;;22.55;48.78;95462.91;10495121;28;4459;-74
2023/06/07 17:48:23;;;;;;;;;;;;;;;22.46;49.30;95460.38;10502814;28;1780;-73
2023/06/07 17:53:26;;;;;;;;;;;;;;;22.38;48.37;95458.59;10503178;28;2019;-72
2023/06/07 17:58:28;;;;;;;;;;;;;;;22.31;49.20;95458.44;10496047;28;2279;-73
2023/06/07 18:03:31;;;;;;;;;;;;;;;22.19;51.29;95462.06;10502622;28;1956;-72
2023/06/07 18:08:33;;;;;;;;;;;;;;;22.07;52.38;95467.63;10500022;28;2064;-73
2023/06/07 18:13:36;;;;;;;;;;;;;;;21.95;52.39;95468.53;10497770;28;1840;-73
2023/06/07 18:18:39;;;;;;;;;;;;;;;21.83;52.04;95469.41;10497245;28;2286;-73
2023/06/07 18:23:42;;;;;;;;;;;;;;;21.72;52.60;95468.34;10498180;28;1938;-76
2023/06/07 18:28:44;;;;;;;;;;;;;;;21.59;53.62;95462.16;10498359;28;2024;-74
2023/06/07 18:33:47;;;;;;;;;;;;;;;21.39;54.15;95473.34;10499619;28;1891;-75
2023/06/07 18:38:49;;;;;;;;;;;;;;;21.20;55.75;95463.81;10495948;28;1963;-75
2023/06/07 18:43:52;;;;;;;;;;;;;;;21.07;57.32;95473.22;10501613;28;4403;-73
2023/06/07 18:48:56;;;;;;;;;;;;;;;20.90;58.60;95478.97;10496330;28;1932;-73
2023/06/07 18:53:58;;;;;;;;;;;;;;;20.73;60.19;95474.56;10497617;28;2325;-73
2023/06/07 18:59:01;;;;;;;;;;;;;;;20.57;61.76;95471.78;10498853;28;1821;-75
2023/06/07 19:04:03;;;;;;;;;;;;;;;20.33;66.11;95482.69;10496400;28;1934;-76
2023/06/07 19:09:06;;;;;;;;;;;;;;;20.20;67.23;95481.91;10499949;28;2271;-74
2023/06/07 19:14:09;;;;;;;;;;;;;;;20.05;69.72;95490.78;10503179;28;1941;-70
2023/06/07 19:19:11;;;;;;;;;;;;;;;19.84;71.71;95488.94;10490674;28;1840;-70
2023/06/07 19:24:14;;;;;;;;;;;;;;;19.65;76.04;95491.41;10502371;28;1903;-72
2023/06/07 19:29:17;;;;;;;;;;;;;;;19.45;83.30;95490.31;10509573;28;1895;-71
2023/06/07 19:34:20;;;;;;;;;;;;;;;19.28;84.44;95499.47;10504246;28;1988;-70
2023/06/07 19:39:23;;;;;;;;;;;;;;;19.14;86.40;95493.50;10499939;28;1876;-72
2023/06/07 19:44:25;;;;;;;;;;;;;;;19.04;88.86;95502.09;10497416;28;1904;-71
2023/06/07 19:49:28;;;;;;;;;;;;;;;19.00;92.94;95504.69;10501210;28;2271;-69
2023/06/07 19:54:30;;;;;;;;;;;;;;;19.13;94.04;95505.53;10508188;28;1990;-69
2023/06/07 19:59:33;;;;;;;;;;;;;;;19.11;95.82;95508.59;10508192;28;1919;-70
2023/06/07 20:04:35;;;;;;;;;;;;;;;19.23;93.89;95510.59;10506045;28;1883;-70
2023/06/07 20:09:37;;;;;;;;;;;;;;;19.23;94.10;95510.59;10498031;28;2171;-69
2023/06/07 20:14:40;;;;;;;;;;;;;;;19.14;95.50;95518.03;10499089;28;1906;-69
2023/06/07 20:19:42;;;;;;;;;;;;;;;19.03;95.50;95525.03;10500470;28;1995;-69
2023/06/07 20:24:45;;;;;;;;;;;;;;;18.84;98.43;95522.78;10496435;28;1950;-69
2023/06/07 20:29:47;;;;;;;;;;;;;;;18.80;98.49;95522.63;10501008;28;1998;-70
2023/06/07 20:34:49;;;;;;;;;;;;;;;18.53;100.00;95520.41;10503279;28;1952;-75
2023/06/07 20:39:52;;;;;;;;;;;;;;;18.22;100.00;95510.66;10507545;28;1864;-73
2023/06/07 20:44:54;;;;;;;;;;;;;;;18.05;100.00;95518.88;10505417;28;4438;-71
2023/06/07 20:49:57;;;;;;;;;;;;;;;17.95;100.00;95514.63;10511047;28;2263;-71
2023/06/07 20:55:00;;;;;;;;;;;;;;;17.85;100.00;95506.03;10512466;28;1890;-73
2023/06/07 21:00:03;;;;;;;;;;;;;;;17.81;100.00;95503.97;10511508;28;1951;-73
2023/06/07 21:05:07;;;;;;;;;;;;;;;17.71;100.00;95504.31;10524549;28;1843;-72
2023/06/07 21:10:10;;;;;;;;;;;;;;;17.63;100.00;95502.41;10510379;28;1911;-71
2023/06/07 21:15:12;;;;;;;;;;;;;;;17.47;100.00;95509.47;10508054;28;2339;-72
2023/06/07 21:20:15;;;;;;;;;;;;;;;17.38;100.00;95500.56;10510643;28;1954;-73
2023/06/07 21:25:17;;;;;;;;;;;;;;;17.46;100.00;95505.16;10510735;28;1906;-72
2023/06/07 21:30:20;;;;;;;;;;;;;;;17.40;100.00;95503.75;10512975;28;1891;-72
2023/06/07 21:35:22;;;;;;;;;;;;;;;17.33;100.00;95506.94;10514051;28;1985;-72
2023/06/07 21:40:25;;;;;;;;;;;;;;;17.23;100.00;95505.34;10509188;28;1930;-71
2023/06/07 21:45:27;;;;;;;;;;;;;;;17.40;100.00;95503.75;10508161;28;4469;-72
2023/06/07 21:50:30;;;;;;;;;;;;;;;17.24;100.00;95511.59;10510042;28;1847;-73
2023/06/07 21:55:32;;;;;;;;;;;;;;;17.19;100.00;95504.41;10508830;28;2011;-73
2023/06/07 22:00:35;;;;;;;;;;;;;;;17.13;100.00;95505.72;10513274;28;1876;-72
2023/06/07 22:05:37;;;;;;;;;;;;;;;17.10;100.00;95506.34;10503506;28;1895;-73
2023/06/07 22:10:41;;;;;;;;;;;;;;;16.98;100.00;95504.25;10506790;28;1919;-72
2023/06/07 22:15:44;;;;;;;;;;;;;;;17.00;100.00;95509.41;10502121;28;2347;-73
2023/06/07 22:20:46;;;;;;;;;;;;;;;16.95;100.00;95498.69;10507237;28;1860;-72
2023/06/07 22:25:49;;;;;;;;;;;;;;;17.01;100.00;95497.41;10504839;28;1958;-73
2023/06/07 22:30:53;;;;;;;;;;;;;;;16.88;100.00;95495.66;10509970;28;1919;-73
2023/06/07 22:35:57;;;;;;;;;;;;;;;16.79;100.00;95500.28;10503861;28;1914;-73
2023/06/07 22:41:02;;;;;;;;;;;;;;;16.64;100.00;95488.75;10505162;28;2546;-72
2023/06/07 22:46:05;;;;;;;;;;;;;;;16.67;100.00;95490.84;10504841;28;4435;-72
2023/06/07 22:51:09;;;;;;;;;;;;;;;16.54;100.00;95499.94;10504998;28;1959;-72
2023/06/07 22:56:12;;;;;;;;;;;;;;;16.48;100.00;95495.78;10503465;28;1961;-73
2023/06/07 23:01:14;;;;;;;;;;;;;;;16.47;100.00;95510.44;10504807;28;1993;-73
2023/06/07 23:06:17;;;;;;;;;;;;;;;16.52;100.00;95491.31;10503031;28;2057;-73
2023/06/07 23:11:20;;;;;;;;;;;;;;;16.26;100.00;95493.19;10497383;28;1895;-73
2023/06/07 23:16:23;;;;;;;;;;;;;;;16.33;100.00;95493.50;10503322;28;2184;-73
2023/06/07 23:21:28;;;;;;;;;;;;;;;16.23;100.00;95499.25;10502557;28;1816;-74
2023/06/07 23:26:31;;;;;;;;;;;;;;;16.18;100.00;95492.84;10484827;28;1903;-73
2023/06/07 23:31:34;;;;;;;;;;;;;;;16.28;100.00;95497.16;10503738;28;1792;-73
2023/06/07 23:36:37;;;;;;;;;;;;;;;16.10;100.00;95503.69;10505592;28;1891;-72
2023/06/07 23:41:40;;;;;;;;;;;;;;;15.94;100.00;95503.31;10504181;28;1871;-73
2023/06/07 23:46:43;;;;;;;;;;;;;;;16.01;100.00;95492.81;10507393;28;4489;-72
2023/06/07 23:51:45;;;;;;;;;;;;;;;15.89;100.00;95500.72;10508088;28;1848;-72
2023/06/07 23:56:48;;;;;;;;;;;;;;;16.06;100.00;95491.88;10503025;28;1973;-71
